Time;durP1;ratioP1;P1;durP2;ratioP2;P2;SDS_P1;SDS_P2;PMS_P1;PMS_P2;Temp;Humidity;BMP_temperature;BMP_pressure;BME280_temperature;BME280_humidity;BME280_pressure;Samples;Min_cycle;Max_cycle;Signal;HPM_P1;HPM_P2
2021/08/12 00:01:10;;;;;;;8.13;7.30;;;;;;;;;;4993988;28;20414;-76
2021/08/12 00:03:36;;;;;;;7.63;5.77;;;;;;;;;;4993656;28;20595;-76
2021/08/12 00:06:02;;;;;;;7.77;6.90;;;;;;;;;;5008935;28;20431;-78
2021/08/12 00:08:28;;;;;;;8.53;6.90;;;;;;;;;;5009022;28;20513;-78
2021/08/12 00:10:54;;;;;;;7.57;6.60;;;;;;;;;;4993778;28;20410;-78
2021/08/12 00:13:21;;;;;;;9.03;7.43;;;;;;;;;;4993465;28;20426;-78
2021/08/12 00:15:47;;;;;;;8.83;7.30;;;;;;;;;;4993771;28;20409;-78
2021/08/12 00:18:13;;;;;;;8.23;7.43;;;;;;;;;;4993810;28;20385;-78
2021/08/12 00:20:40;;;;;;;7.57;6.80;;;;;;;;;;4993784;28;20521;-79
2021/08/12 00:23:06;;;;;;;7.07;6.37;;;;;;;;;;4993264;28;20509;-78
2021/08/12 00:25:32;;;;;;;11.10;7.07;;;;;;;;;;4993529;28;20439;-78
2021/08/12 00:27:58;;;;;;;7.43;6.73;;;;;;;;;;4993669;28;20624;-78
2021/08/12 00:30:24;;;;;;;7.10;6.30;;;;;;;;;;4993753;28;20438;-78
2021/08/12 00:32:50;;;;;;;7.53;6.50;;;;;;;;;;4993371;28;20947;-78
2021/08/12 00:35:16;;;;;;;6.90;5.70;;;;;;;;;;4993480;28;20435;-78
2021/08/12 00:37:42;;;;;;;8.77;7.00;;;;;;;;;;4993689;28;20502;-78
2021/08/12 00:40:08;;;;;;;9.80;7.40;;;;;;;;;;4993715;28;20411;-79
2021/08/12 00:42:35;;;;;;;9.77;6.67;;;;;;;;;;4993331;28;20814;-78
2021/08/12 00:45:01;;;;;;;8.37;6.87;;;;;;;;;;4993158;28;20430;-79
2021/08/12 00:47:27;;;;;;;8.53;7.20;;;;;;;;;;4993499;28;20753;-79
2021/08/12 00:49:54;;;;;;;9.73;8.27;;;;;;;;;;5008644;28;20449;-78
2021/08/12 00:52:20;;;;;;;9.60;8.17;;;;;;;;;;4995901;28;20433;-78
2021/08/12 00:54:46;;;;;;;7.90;7.07;;;;;;;;;;5012123;28;20478;-78
2021/08/12 00:57:12;;;;;;;7.70;7.00;;;;;;;;;;5012415;28;20429;-78
2021/08/12 00:59:39;;;;;;;9.77;8.77;;;;;;;;;;4997153;28;20425;-78
2021/08/12 01:02:07;;;;;;;12.43;7.53;;;;;;;;;;4997151;28;20464;-78
2021/08/12 01:04:33;;;;;;;9.73;7.20;;;;;;;;;;4996996;28;20490;-78
2021/08/12 01:07:17;;;;;;;9.43;8.10;;;;;;;;;;4997164;28;20901;-78
2021/08/12 01:09:53;;;;;;;9.60;6.40;;;;;;;;;;4996996;28;20816;-79
2021/08/12 01:12:42;;;;;;;8.30;7.20;;;;;;;;;;4997147;28;20381;-78
2021/08/12 01:15:09;;;;;;;7.57;6.87;;;;;;;;;;4989407;28;20539;-78
2021/08/12 01:17:39;;;;;;;10.23;7.40;;;;;;;;;;4996884;28;20473;-78
2021/08/12 01:20:23;;;;;;;9.50;8.60;;;;;;;;;;4996833;28;20502;-78
2021/08/12 01:22:50;;;;;;;12.50;7.87;;;;;;;;;;4996393;28;20481;-78
2021/08/12 01:25:21;;;;;;;10.97;7.33;;;;;;;;;;4996584;28;20423;-79
2021/08/12 01:27:51;;;;;;;10.57;8.10;;;15.60;99.90;;;;;;4996725;28;20501;-78
2021/08/12 01:30:20;;;;;;;10.17;7.70;;;15.60;99.90;;;;;;4996704;28;20410;-79
2021/08/12 01:32:46;;;;;;;10.20;7.83;;;15.60;99.90;;;;;;4996404;28;20442;-79
2021/08/12 01:35:15;;;;;;;9.07;7.77;;;15.60;99.90;;;;;;4996756;28;20445;-78
2021/08/12 01:37:47;;;;;;;10.73;7.27;;;15.50;99.90;;;;;;4996477;28;20538;-78
2021/08/12 01:40:16;;;;;;;8.00;7.23;;;15.50;99.90;;;;;;4996652;28;20424;-79
2021/08/12 01:42:44;;;;;;;13.00;8.87;;;15.40;99.90;;;;;;4996323;28;20458;-78
2021/08/12 01:45:11;;;;;;;8.03;7.27;;;;;;;;;;4996440;28;20829;-79
2021/08/12 01:47:39;;;;;;;8.97;7.10;;;15.40;99.90;;;;;;4996322;28;20405;-79
2021/08/12 01:50:06;;;;;;;9.23;6.97;;;15.30;99.90;;;;;;4996200;28;20423;-78
2021/08/12 01:52:34;;;;;;;9.20;8.23;;;15.30;99.90;;;;;;5011563;28;20433;-79
2021/08/12 01:55:01;;;;;;;9.57;7.63;;;15.30;99.90;;;;;;4995856;28;20812;-79
2021/08/12 01:57:30;;;;;;;9.43;8.00;;;15.30;99.90;;;;;;4996350;28;20423;-78
2021/08/12 01:59:56;;;;;;;9.70;8.27;;;15.30;99.90;;;;;;4994329;28;20945;-79
2021/08/12 02:02:23;;;;;;;9.07;8.17;;;15.20;99.90;;;;;;4995653;28;20458;-78
2021/08/12 02:04:52;;;;;;;13.10;9.80;;;15.20;99.90;;;;;;4995028;28;20466;-79
2021/08/12 02:07:17;;;;;;;9.97;8.97;;;15.20;99.90;;;;;;4996074;28;20938;-78
2021/08/12 02:09:43;;;;;;;10.23;8.20;;;15.20;99.90;;;;;;5011154;28;20422;-79
2021/08/12 02:12:10;;;;;;;10.20;8.13;;;15.30;99.90;;;;;;4978363;28;20796;-79
2021/08/12 02:14:36;;;;;;;10.10;7.97;;;15.30;99.90;;;;;;4995497;28;20571;-78
2021/08/12 02:17:02;;;;;;;14.13;9.13;;;;;;;;;;4995847;28;20427;-78
2021/08/12 02:19:29;;;;;;;10.40;8.20;;;;;;;;;;4995751;28;20414;-79
2021/08/12 02:22:01;;;;;;;9.57;8.57;;;14.90;99.90;;;;;;4995847;28;20481;-79
2021/08/12 02:24:59;;;;;;;18.23;10.00;;;;;;;;;;4995584;28;20847;-78
2021/08/12 02:27:26;;;;;;;11.97;9.03;;;;;;;;;;4962813;28;20535;-79
2021/08/12 02:29:53;;;;;;;11.33;9.13;;;15.40;99.90;;;;;;4995650;28;20413;-79
2021/08/12 02:32:20;;;;;;;10.73;9.63;;;15.40;99.90;;;;;;4995446;28;20429;-78
2021/08/12 02:34:48;;;;;;;12.60;8.77;;;15.40;99.90;;;;;;4995192;28;20474;-78
2021/08/12 02:37:15;;;;;;;14.80;9.90;;;;;;;;;;4995361;28;20419;-79
2021/08/12 02:39:43;;;;;;;11.40;9.30;;;;;;;;;;4995345;28;20465;-79
2021/08/12 02:42:10;;;;;;;9.67;8.40;;;;;;;;;;4995127;28;20454;-80
2021/08/12 02:44:36;;;;;;;11.40;10.03;;;;;;;;;;4994907;28;20423;-79
2021/08/12 02:47:05;;;;;;;10.97;9.87;;;;;;;;;;4995272;28;20415;-79
2021/08/12 02:49:32;;;;;;;12.07;9.57;;;;;;;;;;4995149;28;20414;-79
2021/08/12 02:51:59;;;;;;;11.33;10.10;;;;;;;;;;4995151;28;20457;-80
2021/08/12 02:54:27;;;;;;;14.33;10.70;;;15.30;99.90;;;;;;4994561;28;20410;-79
2021/08/12 02:56:54;;;;;;;13.20;11.80;;;;;;;;;;4995127;28;20780;-79
2021/08/12 02:59:20;;;;;;;14.37;10.77;;;15.30;99.90;;;;;;4995175;28;20419;-78
2021/08/12 03:01:46;;;;;;;17.10;12.67;;;;;;;;;;5010039;28;20427;-78
2021/08/12 03:04:12;;;;;;;13.77;11.83;;;15.30;99.90;;;;;;4994589;28;20462;-78
2021/08/12 03:06:40;;;;;;;14.10;12.70;;;15.20;99.90;;;;;;5013837;28;20412;-78
2021/08/12 03:09:07;;;;;;;11.93;10.53;;;15.20;99.90;;;;;;5009972;28;20192;-78
2021/08/12 03:11:35;;;;;;;12.37;11.17;;;;;;;;;;5009818;28;20796;-78
2021/08/12 03:14:01;;;;;;;13.33;9.73;;;;;;;;;;4994233;28;20415;-78
2021/08/12 03:16:27;;;;;;;13.80;10.33;;;15.20;99.90;;;;;;4994708;28;20438;-78
2021/08/12 03:18:53;;;;;;;16.30;10.80;;;;;;;;;;5009837;28;20419;-78
2021/08/12 03:21:19;;;;;;;11.83;10.60;;;;;;;;;;4994687;28;20418;-78
2021/08/12 03:23:45;;;;;;;14.53;10.90;;;15.20;99.90;;;;;;4994172;28;20897;-77
2021/08/12 03:26:11;;;;;;;13.17;11.10;;;;;;;;;;4994203;28;20550;-78
2021/08/12 03:28:37;;;;;;;12.90;9.80;;;15.20;99.90;;;;;;4994432;28;20183;-79
2021/08/12 03:31:03;;;;;;;13.03;10.57;;;;;;;;;;4994379;28;20394;-78
2021/08/12 03:33:29;;;;;;;14.20;11.17;;;;;;;;;;4994138;28;20817;-78
2021/08/12 03:35:55;;;;;;;11.97;10.70;;;15.30;99.90;;;;;;4994339;28;20887;-79
2021/08/12 03:38:22;;;;;;;15.63;11.47;;;15.30;99.90;;;;;;4994084;28;20506;-78
2021/08/12 03:40:50;;;;;;;12.20;10.93;;;15.20;99.90;;;;;;4994231;28;20683;-78
2021/08/12 03:43:17;;;;;;;13.67;12.27;;;15.20;99.90;;;;;;4993859;28;20838;-78
2021/08/12 03:45:45;;;;;;;14.73;11.77;;;;;;;;;;4994160;28;20435;-77
2021/08/12 03:48:11;;;;;;;15.43;12.37;;;15.20;99.90;;;;;;4994225;28;20498;-78
2021/08/12 03:50:37;;;;;;;14.27;12.57;;;15.20;99.90;;;;;;4994016;28;20446;-78
2021/08/12 03:53:03;;;;;;;14.57;12.50;;;15.20;99.90;;;;;;4993563;28;20175;-78
2021/08/12 03:55:28;;;;;;;13.60;11.10;;;15.10;99.90;;;;;;4993903;28;20823;-78
2021/08/12 03:57:54;;;;;;;14.13;12.70;;;15.10;99.90;;;;;;4993892;28;20629;-78
2021/08/12 04:00:20;;;;;;;16.20;13.10;;;15.20;99.90;;;;;;5009026;28;20179;-78
2021/08/12 04:02:45;;;;;;;14.27;12.00;;;15.20;99.90;;;;;;4993383;28;20207;-79
2021/08/12 04:05:11;;;;;;;13.00;11.23;;;15.20;99.90;;;;;;4993779;28;20660;-79
2021/08/12 04:07:37;;;;;;;17.30;10.63;;;;;;;;;;5009088;28;20621;-79
2021/08/12 04:10:03;;;;;;;19.00;10.87;;;;;;;;;;4993854;28;20187;-79
2021/08/12 04:12:30;;;;;;;13.03;11.03;;;;;;;;;;4993780;28;20793;-78
2021/08/12 04:14:56;;;;;;;14.97;11.63;;;;;;;;;;4993347;28;20519;-78
2021/08/12 04:17:24;;;;;;;13.67;12.10;;;;;;;;;;4993576;28;20446;-78
2021/08/12 04:19:50;;;;;;;17.67;12.70;;;15.20;99.90;;;;;;4993795;28;20446;-78
2021/08/12 04:22:16;;;;;;;12.20;11.10;;;15.10;99.90;;;;;;5008977;28;20625;-78
2021/08/12 04:24:42;;;;;;;13.73;12.30;;;15.10;99.90;;;;;;4993482;28;20434;-78
2021/08/12 04:27:07;;;;;;;13.23;10.87;;;15.10;99.90;;;;;;5010999;28;20206;-77
2021/08/12 04:29:33;;;;;;;14.70;12.70;;;15.10;99.90;;;;;;4998081;28;20274;-78
2021/08/12 04:31:59;;;;;;;13.57;12.17;;;15.10;99.90;;;;;;4997884;28;20172;-79
2021/08/12 04:34:24;;;;;;;16.37;11.77;;;15.10;99.90;;;;;;4997304;28;20680;-78
2021/08/12 04:36:50;;;;;;;15.10;12.83;;;15.10;99.90;;;;;;5012628;28;20179;-79
2021/08/12 04:39:15;;;;;;;14.50;11.87;;;15.20;99.90;;;;;;4997512;28;20266;-78
2021/08/12 04:41:41;;;;;;;16.60;13.20;;;;;;;;;;5012618;28;20194;-78
2021/08/12 04:44:07;;;;;;;17.43;13.40;;;15.20;99.90;;;;;;4997074;28;20217;-78
2021/08/12 04:46:33;;;;;;;15.23;13.10;;;15.20;99.90;;;;;;5012410;28;20478;-79
2021/08/12 04:48:59;;;;;;;17.77;14.07;;;;;;;;;;5012521;28;20281;-80
2021/08/12 04:51:24;;;;;;;14.90;12.70;;;15.20;99.90;;;;;;4997370;28;20179;-78
2021/08/12 04:53:50;;;;;;;15.60;12.97;;;;;;;;;;4997031;28;20425;-78
2021/08/12 04:56:16;;;;;;;15.03;13.53;;;15.20;99.90;;;;;;4997171;28;20699;-78
2021/08/12 04:58:41;;;;;;;14.47;12.13;;;15.20;99.90;;;;;;5012395;28;20556;-78
2021/08/12 05:01:07;;;;;;;27.03;12.13;;;15.10;99.90;;;;;;4996855;28;20191;-77
2021/08/12 05:03:33;;;;;;;14.40;11.63;;;15.10;99.90;;;;;;4996701;28;20203;-79
2021/08/12 05:06:03;;;;;;;14.20;12.40;;;15.10;99.90;;;;;;4997022;28;20196;-78
2021/08/12 05:08:29;;;;;;;13.57;12.13;;;15.20;99.90;;;;;;4997000;28;20171;-78
2021/08/12 05:10:55;;;;;;;11.93;10.73;;;15.20;99.90;;;;;;4996996;28;20414;-78
2021/08/12 05:13:20;;;;;;;15.60;11.63;;;15.20;99.90;;;;;;4979244;28;20442;-79
2021/08/12 05:15:46;;;;;;;14.80;11.53;;;15.30;99.90;;;;;;4997030;28;20318;-79
2021/08/12 05:18:11;;;;;;;14.23;11.67;;;15.30;99.90;;;;;;4996945;28;20188;-78
2021/08/12 05:20:37;;;;;;;15.43;12.33;;;15.30;99.90;;;;;;4996859;28;20190;-77
2021/08/12 05:23:04;;;;;;;10.67;9.67;;;15.30;99.90;;;;;;4996667;28;20221;-79
2021/08/12 05:25:29;;;;;;;12.93;11.47;;;15.30;99.90;;;;;;4996394;28;20200;-78
2021/08/12 05:27:56;;;;;;;15.30;10.33;;;15.30;99.90;;;;;;4979319;28;20442;-78
2021/08/12 05:30:22;;;;;;;14.50;10.10;;;;;;;;;;4996692;28;20168;-78
2021/08/12 05:32:48;;;;;;;14.17;12.67;;;15.40;99.90;;;;;;4978754;28;20393;-78
2021/08/12 05:35:13;;;;;;;13.70;12.00;;;15.50;99.90;;;;;;4996682;28;20431;-78
2021/08/12 05:37:39;;;;;;;14.50;12.30;;;;;;;;;;4996110;28;20187;-78
2021/08/12 05:40:06;;;;;;;13.97;11.73;;;15.60;99.90;;;;;;4979356;28;20270;-78
2021/08/12 05:42:32;;;;;;;14.33;12.50;;;;;;;;;;4996276;28;20463;-77
2021/08/12 05:44:58;;;;;;;14.97;12.20;;;;;;;;;;4996204;28;20430;-77
2021/08/12 05:47:24;;;;;;;14.17;12.37;;;;;;;;;;4978798;28;20900;-77
2021/08/12 05:49:50;;;;;;;14.90;11.93;;;;;;;;;;4978728;28;20448;-77
2021/08/12 05:52:16;;;;;;;16.43;12.40;;;;;;;;;;4996440;28;20419;-77
2021/08/12 05:54:41;;;;;;;14.63;13.10;;;15.90;99.90;;;;;;4995707;28;20963;-77
2021/08/12 05:57:07;;;;;;;12.37;11.10;;;;;;;;;;4978431;28;20405;-77
2021/08/12 05:59:33;;;;;;;15.63;12.40;;;;;;;;;;4978804;28;20187;-77
2021/08/12 06:01:59;;;;;;;17.23;11.20;;;;;;;;;;4978456;28;20445;-77
2021/08/12 06:04:25;;;;;;;13.27;11.87;;;;;;;;;;4995682;28;20527;-77
2021/08/12 06:07:00;;;;;;;13.63;11.40;;;;;;;;;;4978708;28;20430;-77
2021/08/12 06:09:26;;;;;;;15.20;12.83;;;;;;;;;;4996060;28;20414;-77
2021/08/12 06:11:52;;;;;;;16.13;13.00;;;;;;;;;;4995961;28;20765;-77
2021/08/12 06:14:18;;;;;;;15.07;11.27;;;;;;;;;;4995513;28;20385;-77
2021/08/12 06:16:44;;;;;;;13.50;11.03;;;;;;;;;;4995771;28;20501;-77
2021/08/12 06:19:10;;;;;;;17.47;12.03;;;;;;;;;;4995767;28;20489;-78
2021/08/12 06:21:36;;;;;;;12.03;10.93;;;;;;;;;;4995647;28;20385;-76
2021/08/12 06:24:02;;;;;;;12.03;10.83;;;;;;;;;;4995199;28;20456;-77
2021/08/12 06:26:28;;;;;;;11.97;9.77;;;;;;;;;;4995354;28;20432;-77
2021/08/12 06:28:54;;;;;;;12.10;10.90;;;;;;;;;;4995579;28;20414;-77
2021/08/12 06:31:20;;;;;;;12.83;11.33;;;;;;;;;;4995612;28;20935;-77
2021/08/12 06:33:46;;;;;;;13.90;11.00;;;;;;;;;;4995237;28;20419;-77
2021/08/12 06:36:12;;;;;;;11.67;10.47;;;;;;;;;;4999458;28;20445;-77
2021/08/12 06:38:38;;;;;;;14.33;11.70;;;;;;;;;;4995427;28;20490;-77
2021/08/12 06:41:04;;;;;;;11.23;10.13;;;17.60;99.90;;;;;;4977946;28;20958;-76
2021/08/12 06:43:30;;;;;;;16.33;10.50;;;;;;;;;;4994976;28;20498;-77
2021/08/12 06:45:56;;;;;;;11.40;10.00;;;;;;;;;;4995122;28;20207;-77
2021/08/12 06:48:22;;;;;;;13.30;10.07;;;;;;;;;;4995021;28;20421;-77
2021/08/12 06:50:48;;;;;;;12.83;9.97;;;;;;;;;;4977056;28;20423;-77
2021/08/12 06:53:14;;;;;;;9.60;8.10;;;;;;;;;;4977273;28;20422;-77
2021/08/12 06:55:40;;;;;;;11.70;9.33;;;;;;;;;;4977610;28;20471;-77
2021/08/12 06:58:06;;;;;;;10.00;8.90;;;;;;;;;;4994752;28;20394;-77
2021/08/12 07:00:32;;;;;;;11.67;8.93;;;;;;;;;;4994901;28;20913;-77
2021/08/12 07:02:58;;;;;;;9.00;8.10;;;;;;;;;;4977115;28;20474;-77
2021/08/12 07:05:24;;;;;;;11.80;9.23;;;;;;;;;;4994819;28;20413;-77
2021/08/12 07:07:50;;;;;;;14.37;9.20;;;;;;;;;;4994814;28;20476;-77
2021/08/12 07:10:16;;;;;;;11.40;9.37;;;;;;;;;;4994709;28;20990;-78
2021/08/12 07:12:42;;;;;;;11.00;8.53;;;;;;;;;;4994674;28;20754;-77
2021/08/12 07:15:08;;;;;;;12.00;8.93;;;;;;;;;;4976859;28;20439;-77
2021/08/12 07:17:35;;;;;;;8.90;8.00;;;;;;;;;;4994654;28;20385;-77
2021/08/12 07:20:01;;;;;;;8.73;7.83;;;;;;;;;;4994795;28;20415;-77
2021/08/12 07:22:27;;;;;;;10.10;9.07;;;;;;;;;;4994606;28;20462;-77
2021/08/12 07:24:53;;;;;;;15.53;8.93;;;;;;;;;;4994295;28;20555;-77
2021/08/12 07:27:19;;;;;;;11.20;8.70;;;;;;;;;;4994574;28;20408;-78
2021/08/12 07:29:45;;;;;;;11.83;8.10;;;;;;;;;;4994371;28;20469;-78
2021/08/12 07:32:11;;;;;;;10.40;8.33;;;;;;;;;;4994432;28;20407;-77
2021/08/12 07:34:37;;;;;;;9.53;7.70;;;;;;;;;;4993946;28;20401;-77
2021/08/12 07:37:04;;;;;;;8.70;7.80;;;;;;;;;;4994275;28;20389;-78
2021/08/12 07:39:31;;;;;;;10.17;9.20;;;;;;;;;;4994380;28;20394;-81
2021/08/12 07:41:57;;;;;;;8.70;7.80;;;;;;;;;;4994121;28;20892;-78
2021/08/12 07:44:23;;;;;;;9.30;7.70;;;;;;;;;;4976759;28;20393;-79
2021/08/12 07:46:48;;;;;;;11.43;8.30;;;;;;;;;;4994034;28;20436;-80
2021/08/12 07:49:14;;;;;;;12.03;8.50;;;;;;;;;;4994235;28;20900;-81
2021/08/12 07:51:40;;;;;;;10.97;7.13;;;;;;;;;;4994013;28;20395;-80
2021/08/12 07:54:06;;;;;;;8.73;7.93;;;;;;;;;;4993890;28;20384;-80
2021/08/12 07:56:33;;;;;;;8.80;8.00;;;;;;;;;;4993838;28;20394;-81
2021/08/12 07:58:59;;;;;;;9.50;8.53;;;;;;;;;;4993954;28;20947;-81
2021/08/12 08:01:25;;;;;;;8.17;7.37;;;;;;;;;;4994372;28;20473;-80
2021/08/12 08:03:53;;;;;;;10.97;8.60;;;;;;;;;;4993589;28;20441;-80
2021/08/12 08:06:20;;;;;;;11.27;9.10;;;;;;;;;;4993914;28;20481;-81
2021/08/12 08:08:46;;;;;;;9.50;8.50;;;;;;;;;;4993748;28;20457;-79
2021/08/12 08:11:15;;;;;;;12.40;8.00;;;;;;;;;;4994030;28;20417;-81
2021/08/12 08:13:41;;;;;;;12.50;7.83;;;;;;;;;;4993670;28;20385;-79
2021/08/12 08:16:07;;;;;;;10.97;8.10;;;;;;;;;;4993912;28;20508;-80
2021/08/12 08:18:34;;;;;;;13.80;8.70;;;;;;;;;;4993833;28;20465;-78
2021/08/12 08:21:00;;;;;;;10.47;7.47;;;;;;;;;;4993616;28;20792;-79
2021/08/12 08:23:27;;;;;;;10.50;8.53;;;;;;;;;;4993456;28;20568;-79
2021/08/12 08:25:54;;;;;;;8.80;7.30;;;;;;;;;;4993440;28;20520;-80
2021/08/12 08:28:21;;;;;;;12.13;8.23;;;;;;;;;;4993875;28;20754;-81
2021/08/12 08:30:47;;;;;;;9.90;8.33;;;;;;;;;;4993560;28;20381;-81
2021/08/12 08:33:14;;;;;;;11.80;8.23;;;;;;;;;;4993255;28;20414;-79
2021/08/12 08:35:40;;;;;;;11.93;8.37;;;;;;;;;;4993810;28;20488;-80
2021/08/12 08:38:06;;;;;;;10.03;7.80;;;;;;;;;;4976492;28;20906;-82
2021/08/12 08:40:34;;;;;;;10.50;8.10;;;;;;;;;;4993806;28;20382;-80
2021/08/12 08:43:02;;;;;;;10.97;8.30;;;;;;;;;;4993046;28;20528;-80
2021/08/12 08:45:29;;;;;;;9.50;8.20;;;;;;;;;;4993434;28;20435;-81
2021/08/12 08:47:56;;;;;;;8.70;7.80;;;;;;;;;;4993645;28;20779;-80
2021/08/12 08:50:25;;;;;;;8.80;7.17;;;;;;;;;;4993507;28;20450;-80
2021/08/12 08:52:53;;;;;;;7.60;6.80;;;;;;;;;;4993133;28;20438;-80
2021/08/12 08:55:21;;;;;;;9.80;6.33;;;;;;;;;;4993180;28;20446;-81
2021/08/12 08:57:52;;;;;;;7.27;6.57;;;;;;;;;;4993388;28;20421;-79
2021/08/12 09:00:19;;;;;;;7.77;6.90;;;;;;;;;;4993443;28;20426;-81
2021/08/12 09:02:47;;;;;;;6.40;5.63;;;;;;;;;;4993446;28;20466;-79
2021/08/12 09:05:16;;;;;;;9.10;6.20;;;;;;;;;;4975906;28;20960;-78
2021/08/12 09:07:43;;;;;;;8.20;5.57;;;;;;;;;;4993258;28;20406;-78
2021/08/12 09:10:12;;;;;;;8.20;6.73;;;;;;;;;;4976072;28;20427;-76
2021/08/12 09:12:38;;;;;;;7.37;6.63;;;;;;;;;;4994963;28;20423;-79
2021/08/12 09:15:05;;;;;;;6.83;5.97;;;;;;;;;;4996710;28;20809;-78
2021/08/12 09:17:33;;;;;;;6.77;5.00;;;;;;;;;;4996873;28;20931;-78
2021/08/12 09:20:01;;;;;;;6.57;5.80;;;;;;;;;;4996897;28;20422;-78
2021/08/12 09:22:31;;;;;;;5.93;5.33;;;;;;;;;;4979800;28;20912;-78
2021/08/12 09:24:58;;;;;;;5.60;5.10;;;;;;;;;;4996762;28;20426;-77
2021/08/12 09:27:27;;;;;;;5.97;5.37;;;;;;;;;;4996454;28;20508;-78
2021/08/12 09:30:15;;;;;;;5.90;5.40;;;;;;;;;;4997012;28;20410;-78
2021/08/12 09:32:50;;;;;;;5.87;4.80;;;;;;;;;;4996756;28;20438;-79
2021/08/12 09:35:24;;;;;;;6.80;5.10;;;;;;;;;;4996527;28;20794;-77
2021/08/12 09:37:50;;;;;;;7.10;4.77;;;;;;;;;;4996742;28;20787;-78
2021/08/12 09:40:23;;;;;;;8.53;4.73;;;;;;;;;;4997188;28;20903;-78
2021/08/12 09:43:02;;;;;;;7.77;4.90;;;;;;;;;;4995960;28;20458;-79
2021/08/12 09:45:29;;;;;;;5.70;4.60;;;;;;;;;;4996181;28;20439;-79
2021/08/12 09:47:56;;;;;;;5.10;4.60;;;;;;;;;;4996513;28;20410;-78
2021/08/12 09:50:31;;;;;;;4.60;4.17;;;;;;;;;;4996324;28;20446;-78
2021/08/12 09:52:57;;;;;;;5.27;4.07;;;;;;;;;;4995978;28;20841;-77
2021/08/12 09:55:23;;;;;;;5.17;4.00;;;;;;;;;;4996230;28;20485;-79
2021/08/12 09:58:16;;;;;;;6.27;4.27;;;;;;;;;;4996282;28;20419;-78
2021/08/12 10:00:44;;;;;;;4.67;3.83;;;;;;;;;;4994272;28;20861;-79
2021/08/12 10:03:20;;;;;;;5.23;3.90;;;;;;;;;;4996456;28;20461;-79
2021/08/12 10:05:46;;;;;;;4.47;3.70;;;;;;;;;;4996164;28;20453;-79
2021/08/12 10:08:12;;;;;;;5.87;4.77;;;;;;;;;;4995986;28;20418;-78
2021/08/12 10:10:38;;;;;;;6.23;4.33;;;;;;;;;;4996088;28;20417;-78
2021/08/12 10:13:04;;;;;;;5.17;4.23;;;;;;;;;;4995841;28;20414;-79
2021/08/12 10:15:32;;;;;;;6.00;3.70;;;;;;;;;;4995765;28;20484;-78
2021/08/12 10:18:01;;;;;;;8.00;4.20;;;;;;;;;;4996059;28;20815;-80
2021/08/12 10:20:28;;;;;;;3.60;3.30;;;;;;;;;;4995926;28;20414;-80
2021/08/12 10:22:56;;;;;;;6.23;4.13;;;;;;;;;;4995543;28;20805;-79
2021/08/12 10:25:24;;;;;;;4.30;3.90;;;;;;;;;;4994363;28;20442;-80
2021/08/12 10:27:56;;;;;;;6.20;4.10;;;;;;;;;;4978589;28;20529;-80
2021/08/12 10:30:24;;;;;;;9.67;4.03;;;;;;;;;;4995753;28;20457;-79
2021/08/12 10:32:54;;;;;;;5.93;4.27;;;;;;;;;;4995207;28;20454;-80
2021/08/12 10:35:21;;;;;;;6.10;3.70;;;;;;;;;;4995443;28;20850;-80
2021/08/12 10:37:50;;;;;;;7.27;4.37;;;;;;;;;;4995394;28;20911;-79
2021/08/12 10:40:19;;;;;;;5.90;4.33;;;;;;;;;;4978257;28;20453;-80
2021/08/12 10:42:46;;;;;;;5.40;3.93;;;;;;;;;;4995238;28;20406;-79
2021/08/12 10:45:14;;;;;;;4.63;3.93;;;;;;;;;;4995505;28;20470;-78
2021/08/12 10:47:56;;;;;;;4.87;4.03;;;;;;;;;;4995408;28;20407;-79
2021/08/12 10:50:27;;;;;;;4.67;3.73;;;;;;;;;;4995220;28;20852;-80
2021/08/12 10:53:13;;;;;;;4.33;3.80;;;;;;;;;;4994948;28;20765;-78
2021/08/12 10:55:39;;;;;;;4.80;4.30;;;;;;;;;;4995147;28;20505;-79
2021/08/12 10:58:29;;;;;;;4.03;3.63;;;;;;;;;;4994948;28;20414;-78
2021/08/12 11:00:56;;;;;;;4.90;4.10;;;;;;;;;;4995062;28;20410;-78
2021/08/12 11:03:35;;;;;;;5.33;4.30;;;;;;;;;;4994701;28;20943;-80
2021/08/12 11:06:03;;;;;;;5.77;3.80;;;;;;;;;;4994640;28;20432;-80
2021/08/12 11:08:49;;;;;;;5.17;3.90;;;;;;;;;;4977402;28;20919;-80
2021/08/12 11:11:36;;;;;;;5.67;3.93;;;;;;;;;;4994897;28;20453;-79
2021/08/12 11:14:10;;;;;;;3.60;3.20;;;;;;;;;;4964144;28;20415;-79
2021/08/12 11:16:45;;;;;;;5.07;3.50;;;;;;;;;;4977872;28;20443;-80
2021/08/12 11:19:32;;;;;;;4.20;3.40;;;;;;;;;;4995671;28;20975;-80
2021/08/12 11:21:59;;;;;;;3.77;3.40;;;;;;;;;;4994887;28;20407;-80
2021/08/12 11:24:25;;;;;;;5.77;3.33;;;;;;;;;;4994225;28;20466;-79
2021/08/12 11:26:51;;;;;;;5.37;3.87;;;;;;;;;;4994401;28;20946;-80
2021/08/12 11:29:29;;;;;;;4.87;3.47;;;;;;;;;;4994656;28;20457;-80
2021/08/12 11:31:55;;;;;;;4.77;3.50;;;;;;;;;;4994846;28;20446;-78
2021/08/12 11:34:36;;;;;;;4.83;3.57;;;;;;;;;;4994163;28;20443;-78
2021/08/12 11:37:02;;;;;;;4.73;3.57;;;;;;;;;;4994340;28;20421;-78
2021/08/12 11:39:29;;;;;;;4.37;3.20;;;;;;;;;;4994358;28;20415;-78
2021/08/12 11:41:56;;;;;;;4.50;3.30;;;;;;;;;;4994456;28;20411;-79
2021/08/12 11:44:22;;;;;;;4.87;3.80;;;;;;;;;;4993765;28;20458;-80
2021/08/12 11:46:48;;;;;;;7.97;3.53;;;;;;;;;;4994331;28;20422;-80
2021/08/12 11:49:18;;;;;;;4.60;3.40;;;;;;;;;;4994364;28;20464;-79
2021/08/12 11:51:44;;;;;;;3.80;3.50;;;;;;;;;;4994098;28;20410;-78
2021/08/12 11:54:11;;;;;;;4.10;3.70;;;;;;;;;;4993884;28;20932;-80
2021/08/12 11:56:39;;;;;;;5.90;3.73;;;;;;;;;;4993894;28;20438;-80
2021/08/12 11:59:06;;;;;;;3.90;3.50;;;;;;;;;;4976730;28;20484;-80
2021/08/12 12:01:33;;;;;;;4.47;3.20;;;;;;;;;;4994034;28;20411;-79
2021/08/12 12:04:00;;;;;;;4.07;3.47;;;;;;;;;;4994017;28;20502;-79
2021/08/12 12:06:30;;;;;;;6.77;3.80;;;;;;;;;;4993747;28;20490;-80
2021/08/12 12:08:56;;;;;;;3.40;3.10;;;;;;;;;;4993855;28;21012;-79
2021/08/12 12:11:22;;;;;;;3.50;3.20;;;;;;;;;;4994058;28;20419;-80
2021/08/12 12:13:48;;;;;;;4.30;3.67;;;;;;;;;;4993613;28;20534;-80
2021/08/12 12:16:14;;;;;;;7.20;3.60;;;;;;;;;;4993828;28;20491;-81
2021/08/12 12:18:41;;;;;;;4.00;3.40;;;;;;;;;;4993685;28;20477;-79
2021/08/12 12:21:11;;;;;;;3.50;3.20;;;;;;;;;;4993872;28;20962;-79
2021/08/12 12:23:39;;;;;;;3.90;3.50;;;;;;;;;;4993621;28;20466;-80
2021/08/12 12:26:05;;;;;;;4.63;3.90;;;;;;;;;;4993544;28;20457;-80
2021/08/12 12:28:32;;;;;;;4.37;3.97;;;;;;;;;;4976530;28;20466;-79
2021/08/12 12:31:00;;;;;;;3.90;3.60;;;;;;;;;;4993622;28;20450;-80
2021/08/12 12:33:26;;;;;;;5.27;4.60;;;;;;;;;;4993785;28;20806;-80
2021/08/12 12:35:54;;;;;;;4.17;3.80;;;;;;;;;;4976416;28;20431;-79
2021/08/12 12:38:22;;;;;;;5.97;3.60;;;;;;;;;;4993558;28;20418;-80
2021/08/12 12:40:49;;;;;;;3.67;3.37;;;;;;;;;;4993580;28;20833;-80
2021/08/12 12:43:15;;;;;;;4.53;3.80;;;;;;;;;;4993511;28;20466;-79
2021/08/12 12:45:49;;;;;;;4.10;3.70;;;;;;;;;;4993938;28;20437;-80
2021/08/12 12:48:15;;;;;;;3.90;3.20;;;;;;;;;;4996000;28;20469;-82
2021/08/12 12:50:50;;;;;;;4.17;3.77;;;;;;;;;;4997401;28;20406;-80
2021/08/12 12:53:33;;;;;;;3.93;3.47;;;;;;;;;;4997376;28;20982;-80
2021/08/12 12:55:59;;;;;;;6.10;3.50;;;;;;;;;;4979861;28;20446;-80
2021/08/12 12:58:26;;;;;;;5.07;4.10;;;;;;;;;;4997517;28;20421;-81
2021/08/12 13:01:06;;;;;;;3.97;3.37;;;;;;;;;;4997210;28;20465;-81
2021/08/12 13:03:39;;;;;;;4.70;3.47;;;;;;;;;;4997061;28;20532;-81
2021/08/12 13:06:08;;;;;;;4.40;4.00;;;;;;;;;;4997288;28;20430;-79
2021/08/12 13:08:35;;;;;;;4.43;3.23;;;;;;;;;;4997150;28;20410;-80
2021/08/12 13:11:05;;;;;;;4.23;3.60;;;;;;;;;;4997159;28;20414;-79
2021/08/12 13:13:31;;;;;;;4.90;3.67;;;;;;;;;;4996914;28;20422;-80
2021/08/12 13:15:57;;;;;;;4.97;4.47;;;;;;;;;;4997094;28;20513;-78
2021/08/12 13:18:23;;;;;;;3.93;3.50;;;;;;;;;;4997086;28;20442;-80
2021/08/12 13:20:49;;;;;;;4.53;4.03;;;;;;;;;;4997267;28;20415;-80
2021/08/12 13:23:15;;;;;;;3.97;3.23;;;;;;;;;;4997937;28;20465;-80
2021/08/12 13:25:53;;;;;;;3.90;3.60;;;;;;;;;;4998325;28;20453;-79
2021/08/12 13:28:31;;;;;;;3.87;2.97;;;;;;;;;;4997255;28;20417;-80
2021/08/12 13:31:13;;;;;;;5.37;3.70;;;;;;;;;;4997117;28;20417;-79
2021/08/12 13:33:39;;;;;;;5.93;3.63;;;;;;;;;;4995824;28;20498;-80
2021/08/12 13:36:05;;;;;;;3.43;3.10;;;;;;;;;;4996529;28;20529;-81
2021/08/12 13:38:31;;;;;;;3.70;3.40;;;;;;;;;;4996987;28;20415;-80
2021/08/12 13:40:57;;;;;;;3.63;3.23;;;;;;;;;;4979228;28;20415;-80
2021/08/12 13:43:23;;;;;;;3.87;3.50;;;;;;;;;;4996356;28;20967;-81
2021/08/12 13:45:49;;;;;;;5.23;4.00;;;;;;;;;;4996304;28;20426;-77
2021/08/12 13:48:15;;;;;;;4.43;3.17;;;;;;;;;;4996518;28;20415;-77
2021/08/12 13:50:41;;;;;;;4.20;3.70;;;;;;;;;;4996554;28;20509;-77
2021/08/12 13:53:07;;;;;;;4.23;3.73;;;;;;;;;;4995877;28;20466;-78
2021/08/12 13:55:33;;;;;;;5.30;4.30;;;;;;;;;;4996018;28;20950;-77
2021/08/12 13:57:59;;;;;;;6.93;4.00;;;;;;;;;;4996036;28;20501;-77
2021/08/12 14:00:25;;;;;;;5.70;4.20;;;;;;;;;;4996301;28;20406;-77
2021/08/12 14:02:51;;;;;;;8.53;4.57;;;;;;;;;;4995611;28;20848;-77
2021/08/12 14:05:17;;;;;;;5.43;4.90;;;;;;;;;;4995814;28;20474;-77
2021/08/12 14:07:43;;;;;;;5.07;4.60;;;;;;;;;;4995956;28;20807;-77
2021/08/12 14:10:09;;;;;;;4.90;4.40;;;;;;;;;;4996198;28;20421;-78